createdAt,value
2022-12-20T00:01:35.388Z,81.40
2022-12-20T00:04:05.812Z,75.40
2022-12-20T00:06:37.198Z,81.07
2022-12-20T00:09:07.756Z,76.40
2022-12-20T00:11:38.103Z,80.32
2022-12-20T00:14:05.663Z,79.40
2022-12-20T00:16:33.356Z,72.90
2022-12-20T00:19:02.555Z,73.30
2022-12-20T00:21:31.387Z,74.78
2022-12-20T00:23:59.279Z,80.95
2022-12-20T00:26:29.943Z,81.75
2022-12-20T00:28:58.518Z,75.72
2022-12-20T00:31:28.505Z,71.35
2022-12-20T00:33:57.778Z,74.50
2022-12-20T00:36:27.612Z,72.57
2022-12-20T00:38:56.838Z,75.22
2022-12-20T00:41:27.213Z,79.97
2022-12-20T00:43:54.827Z,75.22
2022-12-20T00:46:24.919Z,70.88
2022-12-20T00:48:54.504Z,76.93
2022-12-20T00:51:24.726Z,73.38
2022-12-20T00:53:52.944Z,70.57
2022-12-20T00:56:21.022Z,76.95
2022-12-20T00:58:49.878Z,76.50
2022-12-20T01:01:25.979Z,74.25
2022-12-20T01:03:54.662Z,73.85
2022-12-20T01:06:23.798Z,71.85
2022-12-20T01:08:52.336Z,71.55
2022-12-20T01:11:33.175Z,71.40
2022-12-20T01:14:07.046Z,71.28
2022-12-20T01:16:38.417Z,79.28
2022-12-20T01:19:07.361Z,75.55
2022-12-20T01:21:34.899Z,73.43
2022-12-20T01:24:02.487Z,78.45
2022-12-20T01:26:30.491Z,78.35
2022-12-20T01:29:00.284Z,71.28
2022-12-20T01:31:29.031Z,77.80
2022-12-20T01:33:57.349Z,76.68
2022-12-20T01:36:28.286Z,72.72
2022-12-20T01:39:02.226Z,79.13
2022-12-20T01:41:31.455Z,75.00
2022-12-20T01:44:26.328Z,75.90
2022-12-20T01:46:54.806Z,78.57
2022-12-20T01:49:27.498Z,73.90
2022-12-20T01:52:06.734Z,71.30
2022-12-20T01:54:37.550Z,71.40
2022-12-20T01:57:12.941Z,74.68
2022-12-20T01:59:43.337Z,77.10
2022-12-20T02:02:12.960Z,73.68
2022-12-20T02:04:40.672Z,65.57
2022-12-20T02:07:11.504Z,70.45
2022-12-20T02:09:39.706Z,71.97
2022-12-20T02:12:26.839Z,67.03
2022-12-20T02:15:14.269Z,62.63
2022-12-20T02:17:53.802Z,64.68
2022-12-20T02:20:27.181Z,69.30
2022-12-20T02:23:31.657Z,68.57
2022-12-20T02:26:23.601Z,70.45
2022-12-20T02:29:29.864Z,69.95
2022-12-20T02:32:19.616Z,68.07
2022-12-20T02:34:47.240Z,65.88
2022-12-20T02:37:14.716Z,67.22
2022-12-20T02:39:44.156Z,66.68
2022-12-20T02:42:14.171Z,67.53
2022-12-20T02:45:22.892Z,69.85
2022-12-20T02:48:00.721Z,62.65
2022-12-20T02:50:39.876Z,65.53
2022-12-20T02:53:08.358Z,65.20
2022-12-20T02:56:01.823Z,62.78
2022-12-20T02:58:36.310Z,71.53
2022-12-20T03:01:12.448Z,70.07
2022-12-20T03:03:40.745Z,73.97
2022-12-20T03:06:08.676Z,67.18
2022-12-20T03:08:36.662Z,75.65
2022-12-20T03:11:04.339Z,64.75
2022-12-20T03:13:33.052Z,72.20
2022-12-20T03:16:04.968Z,67.35
2022-12-20T03:18:32.720Z,66.18
2022-12-20T03:21:00.152Z,69.50
2022-12-20T03:23:27.681Z,67.80
2022-12-20T03:25:55.455Z,68.28
2022-12-20T03:28:32.377Z,68.22
2022-12-20T03:31:00.645Z,70.05
2022-12-20T03:33:28.290Z,67.97
2022-12-20T03:35:58.778Z,68.80
2022-12-20T03:38:26.270Z,70.65
2022-12-20T03:40:53.802Z,76.35
2022-12-20T03:43:22.964Z,68.28
2022-12-20T03:45:50.591Z,72.70
2022-12-20T03:48:18.766Z,69.70
2022-12-20T03:50:46.251Z,69.95
2022-12-20T03:53:13.787Z,70.07
2022-12-20T03:55:45.168Z,69.90
2022-12-20T03:58:13.875Z,66.93
2022-12-20T04:00:41.839Z,72.35
2022-12-20T04:03:29.613Z,69.13
2022-12-20T04:05:57.134Z,70.55
2022-12-20T04:08:24.847Z,67.18
2022-12-20T04:11:19.124Z,67.70
2022-12-20T04:13:55.202Z,63.03
2022-12-20T04:16:28.980Z,59.15
2022-12-20T04:18:57.296Z,63.60
2022-12-20T04:21:31.557Z,68.13
2022-12-20T04:24:01.966Z,69.45
2022-12-20T04:26:40.793Z,74.70
2022-12-20T04:29:09.089Z,60.97
2022-12-20T04:31:36.810Z,66.20
2022-12-20T04:34:04.756Z,68.40
2022-12-20T04:36:34.269Z,64.88
2022-12-20T04:39:05.431Z,68.00
2022-12-20T04:41:43.900Z,67.45
2022-12-20T04:44:13.893Z,63.03
2022-12-20T04:46:41.708Z,67.40
2022-12-20T04:49:13.139Z,64.85
2022-12-20T04:51:43.864Z,60.40
2022-12-20T04:54:12.929Z,63.97
2022-12-20T04:56:49.456Z,64.35
2022-12-20T04:59:21.038Z,59.75
2022-12-20T05:01:51.996Z,70.93
2022-12-20T05:04:42.473Z,65.53
2022-12-20T05:07:09.956Z,63.42
2022-12-20T05:09:39.301Z,61.80
2022-12-20T05:12:07.109Z,72.90
2022-12-20T05:14:34.834Z,68.40
2022-12-20T05:17:02.641Z,77.93
2022-12-20T05:19:30.344Z,73.25
2022-12-20T05:22:16.298Z,70.78
2022-12-20T05:25:14.758Z,65.30
2022-12-20T05:27:43.156Z,62.90
2022-12-20T05:30:11.253Z,79.20
2022-12-20T05:32:38.729Z,72.07
2022-12-20T05:35:06.430Z,72.40
2022-12-20T05:37:35.049Z,80.28
2022-12-20T05:40:11.939Z,80.90
2022-12-20T05:42:39.455Z,79.18
2022-12-20T05:45:07.554Z,77.38
2022-12-20T05:47:43.790Z,72.97
2022-12-20T05:50:18.485Z,80.90
2022-12-20T05:55:46.220Z,78.55
2022-12-20T05:58:14.617Z,82.35
2022-12-20T06:00:52.701Z,92.90
2022-12-20T06:03:21.119Z,84.40
2022-12-20T06:05:49.180Z,99.05
2022-12-20T06:08:23.801Z,103.70
2022-12-20T06:10:52.839Z,100.13
2022-12-20T06:13:21.378Z,109.78
2022-12-20T06:15:51.413Z,94.85
2022-12-20T06:18:20.151Z,108.68
2022-12-20T06:20:51.445Z,105.07
2022-12-20T06:25:58.645Z,92.07
2022-12-20T06:28:30.097Z,97.68
2022-12-20T06:30:58.725Z,95.05
2022-12-20T06:33:40.321Z,85.57
2022-12-20T06:36:08.130Z,92.45
2022-12-20T06:38:35.718Z,105.90
2022-12-20T06:41:03.612Z,112.43
2022-12-20T06:43:32.108Z,132.40
2022-12-20T06:45:59.613Z,153.27
2022-12-20T06:48:27.115Z,132.15
2022-12-20T06:50:56.301Z,118.10
2022-12-20T06:53:25.171Z,128.10
2022-12-20T06:55:52.766Z,154.77
2022-12-20T06:58:21.592Z,131.55
2022-12-20T07:00:49.711Z,143.05
2022-12-20T07:03:17.470Z,157.70
2022-12-20T07:05:45.048Z,153.80
2022-12-20T07:08:12.582Z,155.90
2022-12-20T07:10:39.962Z,158.45
2022-12-20T07:13:07.399Z,170.07
2022-12-20T07:15:35.205Z,145.15
2022-12-20T07:18:03.306Z,165.43
2022-12-20T07:20:31.430Z,164.60
2022-12-20T07:23:00.227Z,169.25
2022-12-20T07:25:28.134Z,160.32
2022-12-20T07:27:55.794Z,163.38
2022-12-20T07:30:23.549Z,162.45
2022-12-20T07:32:50.958Z,153.75
2022-12-20T07:35:18.503Z,157.00
2022-12-20T07:37:45.908Z,169.77
2022-12-20T07:40:14.943Z,148.75
2022-12-20T07:42:48.268Z,154.13
2022-12-20T07:45:16.382Z,149.90
2022-12-20T07:47:44.049Z,173.68
2022-12-20T07:50:11.972Z,154.23
2022-12-20T07:52:41.933Z,144.18
2022-12-20T07:55:10.372Z,136.63
2022-12-20T07:57:39.381Z,129.38
2022-12-20T08:00:07.459Z,113.03
2022-12-20T08:02:55.564Z,111.82
2022-12-20T08:05:24.424Z,120.40
2022-12-20T08:07:59.051Z,105.13
2022-12-20T08:10:28.675Z,95.45
2022-12-20T08:12:57.615Z,96.05
2022-12-20T08:15:25.677Z,89.10
2022-12-20T08:17:53.083Z,89.05
2022-12-20T08:20:20.946Z,93.63
2022-12-20T08:22:48.457Z,107.85
2022-12-20T08:25:15.910Z,102.80
2022-12-20T08:27:43.404Z,90.18
2022-12-20T08:30:11.693Z,104.85
2022-12-20T08:32:39.202Z,92.10
2022-12-20T08:35:07.626Z,101.53
2022-12-20T08:37:35.147Z,97.88
2022-12-20T08:40:02.570Z,109.05
2022-12-20T08:42:30.199Z,113.60
2022-12-20T08:44:57.656Z,111.32
2022-12-20T08:47:25.158Z,101.30
2022-12-20T08:49:52.558Z,107.28
2022-12-20T08:52:19.996Z,116.18
2022-12-20T08:54:47.577Z,111.32
2022-12-20T08:57:15.007Z,113.65
2022-12-20T08:59:42.461Z,113.63
2022-12-20T09:02:10.068Z,124.25
2022-12-20T09:04:37.588Z,114.78
2022-12-20T09:07:05.006Z,112.30
2022-12-20T09:09:32.472Z,118.95
2022-12-20T09:11:59.869Z,114.25
2022-12-20T09:14:27.305Z,112.88
2022-12-20T09:16:54.775Z,133.73
2022-12-20T09:19:22.220Z,133.75
2022-12-20T09:21:49.635Z,118.85
2022-12-20T09:24:17.405Z,119.07
2022-12-20T09:26:45.709Z,134.20
2022-12-20T09:29:22.966Z,132.32
2022-12-20T09:31:53.467Z,119.20
2022-12-20T09:34:20.918Z,126.40
2022-12-20T09:36:48.328Z,115.53
2022-12-20T09:39:15.732Z,130.73
2022-12-20T09:41:44.641Z,128.38
2022-12-20T09:44:15.635Z,127.80
2022-12-20T09:46:46.160Z,116.43
2022-12-20T09:49:19.633Z,122.53
2022-12-20T09:51:57.842Z,112.10
2022-12-20T09:54:49.924Z,121.40
2022-12-20T09:57:47.740Z,114.00
2022-12-20T10:00:17.447Z,110.70
2022-12-20T10:03:09.474Z,123.72
2022-12-20T10:05:46.676Z,119.88
2022-12-20T10:08:41.198Z,115.80
2022-12-20T10:11:26.666Z,117.05
2022-12-20T10:14:24.264Z,121.05
2022-12-20T10:16:56.995Z,123.72
2022-12-20T10:19:30.436Z,116.75
2022-12-20T10:22:17.525Z,114.93
2022-12-20T10:24:53.950Z,125.78
2022-12-20T10:27:22.101Z,114.22
2022-12-20T10:29:50.640Z,112.53
2022-12-20T10:32:22.236Z,121.38
2022-12-20T10:35:12.219Z,80.55
2022-12-20T10:38:06.990Z,116.75
2022-12-20T10:43:59.042Z,104.57
2022-12-20T10:46:48.872Z,121.20
2022-12-20T10:49:31.200Z,120.93
2022-12-20T10:52:00.603Z,112.65
2022-12-20T10:54:34.203Z,104.97
2022-12-20T10:57:15.027Z,119.63
2022-12-20T10:59:51.434Z,115.75
2022-12-20T11:02:36.988Z,119.93
2022-12-20T11:05:12.999Z,102.97
2022-12-20T11:10:46.335Z,112.68
2022-12-20T11:13:25.980Z,109.85
2022-12-20T11:16:01.600Z,104.38
2022-12-20T11:19:01.043Z,117.03
2022-12-20T11:21:44.765Z,113.35
2022-12-20T11:24:21.600Z,109.10
2022-12-20T11:26:49.003Z,108.97
2022-12-20T11:29:16.538Z,109.80
2022-12-20T11:32:05.122Z,112.65
2022-12-20T11:35:07.915Z,114.22
2022-12-20T11:40:36.332Z,115.70
2022-12-20T11:43:18.222Z,114.00
2022-12-20T11:45:45.577Z,118.55
2022-12-20T11:48:36.204Z,109.78
2022-12-20T11:51:06.161Z,97.38
2022-12-20T11:54:12.377Z,105.55
2022-12-20T11:56:45.535Z,82.30
2022-12-20T11:59:13.181Z,93.45
2022-12-20T12:02:19.273Z,84.82
2022-12-20T12:05:00.145Z,89.07
2022-12-20T12:07:32.252Z,78.90
2022-12-20T12:10:06.008Z,83.25
2022-12-20T12:12:40.553Z,92.00
2022-12-20T12:15:40.290Z,92.88
2022-12-20T12:18:20.413Z,91.00
2022-12-20T12:21:18.202Z,94.38
2022-12-20T12:24:08.332Z,101.05
2022-12-20T12:26:38.880Z,114.38
2022-12-20T12:29:09.290Z,101.70
2022-12-20T12:31:43.534Z,117.43
2022-12-20T12:34:21.863Z,128.85
2022-12-20T12:37:19.711Z,139.57
2022-12-20T12:39:55.792Z,138.55
2022-12-20T12:42:41.662Z,134.40
2022-12-20T12:45:23.260Z,150.02
2022-12-20T12:47:55.912Z,137.90
2022-12-20T12:50:31.920Z,130.63
2022-12-20T12:53:14.228Z,145.27
2022-12-20T12:55:44.404Z,145.90
2022-12-20T12:58:23.656Z,130.45
2022-12-20T13:01:00.984Z,129.48
2022-12-20T13:03:46.759Z,131.93
2022-12-20T13:06:27.042Z,141.40
2022-12-20T13:08:57.226Z,140.65
2022-12-20T13:11:47.149Z,128.73
2022-12-20T13:14:24.883Z,111.90
2022-12-20T13:17:17.183Z,130.13
2022-12-20T13:19:52.618Z,126.45
2022-12-20T13:22:27.154Z,125.65
2022-12-20T13:24:59.702Z,128.60
2022-12-20T13:27:31.411Z,144.30
2022-12-20T13:30:07.620Z,132.98
2022-12-20T13:32:46.941Z,131.93
2022-12-20T13:35:29.189Z,145.15
2022-12-20T13:38:11.724Z,137.65
2022-12-20T13:40:59.269Z,136.73
2022-12-20T13:43:36.068Z,142.93
2022-12-20T13:46:13.538Z,127.38
2022-12-20T13:48:57.037Z,126.72
2022-12-20T13:51:26.851Z,139.13
2022-12-20T13:53:55.991Z,145.35
2022-12-20T13:56:49.464Z,140.10
2022-12-20T13:59:26.968Z,138.43
2022-12-20T14:01:57.655Z,139.98
2022-12-20T14:04:40.690Z,136.27
2022-12-20T14:07:12.875Z,151.25
2022-12-20T14:09:44.156Z,133.93
2022-12-20T14:12:23.447Z,127.57
2022-12-20T14:14:54.456Z,143.93
2022-12-20T14:17:23.892Z,143.32
2022-12-20T14:20:03.398Z,143.07
2022-12-20T14:22:31.872Z,139.38
2022-12-20T14:24:59.651Z,143.65
2022-12-20T14:27:31.325Z,138.70
2022-12-20T14:29:58.858Z,134.75
2022-12-20T14:32:26.880Z,150.80
2022-12-20T14:34:54.600Z,146.15
2022-12-20T14:37:25.131Z,145.10
2022-12-20T14:40:19.332Z,146.90
2022-12-20T14:42:47.239Z,156.98
2022-12-20T14:45:14.647Z,150.70
2022-12-20T14:48:15.478Z,151.10
2022-12-20T14:50:52.959Z,143.02
2022-12-20T14:53:27.606Z,144.23
2022-12-20T14:55:55.464Z,149.80
2022-12-20T14:58:34.550Z,148.88
2022-12-20T15:01:17.013Z,156.75
2022-12-20T15:03:59.298Z,146.57
